createdAt,value
2022-11-19T00:01:34.232Z,5.70
2022-11-19T00:04:02.043Z,6.40
2022-11-19T00:06:31.237Z,6.60
2022-11-19T00:08:59.094Z,6.13
2022-11-19T00:11:41.770Z,6.80
2022-11-19T00:14:09.705Z,6.80
2022-11-19T00:16:37.381Z,7.00
2022-11-19T00:19:05.111Z,6.30
2022-11-19T00:21:34.577Z,6.90
2022-11-19T00:24:02.547Z,6.30
2022-11-19T00:26:30.456Z,6.33
2022-11-19T00:28:58.328Z,6.07
2022-11-19T00:31:26.312Z,7.33
2022-11-19T00:33:55.156Z,6.80
2022-11-19T00:36:23.451Z,6.40
2022-11-19T00:38:52.756Z,6.40
2022-11-19T00:41:21.050Z,6.60
2022-11-19T00:43:49.363Z,7.47
2022-11-19T00:46:17.885Z,7.03
2022-11-19T00:48:45.679Z,6.33
2022-11-19T00:51:13.561Z,6.60
2022-11-19T00:53:41.271Z,6.70
2022-11-19T00:56:11.579Z,6.83
2022-11-19T00:58:39.349Z,6.20
2022-11-19T01:01:07.542Z,7.10
2022-11-19T01:03:35.934Z,6.87
2022-11-19T01:06:03.805Z,6.70
2022-11-19T01:08:31.983Z,7.00
2022-11-19T01:11:05.089Z,6.33
2022-11-19T01:13:37.455Z,6.50
2022-11-19T01:16:06.977Z,6.43
2022-11-19T01:18:35.172Z,6.90
2022-11-19T01:21:03.195Z,7.00
2022-11-19T01:23:31.616Z,6.77
2022-11-19T01:25:59.444Z,6.00
2022-11-19T01:28:27.670Z,6.97
2022-11-19T01:30:57.117Z,6.73
2022-11-19T01:33:24.890Z,6.50
2022-11-19T01:35:56.791Z,6.80
2022-11-19T01:38:24.481Z,6.60
2022-11-19T01:40:52.598Z,6.73
2022-11-19T01:43:20.791Z,6.40
2022-11-19T01:45:49.382Z,6.33
2022-11-19T01:48:21.754Z,6.13
2022-11-19T01:50:51.211Z,6.93
2022-11-19T01:53:19.338Z,6.30
2022-11-19T01:55:47.259Z,6.50
2022-11-19T01:58:16.217Z,6.70
2022-11-19T02:00:44.150Z,6.63
2022-11-19T02:03:12.652Z,6.40
2022-11-19T02:05:42.357Z,6.87
2022-11-19T02:08:11.487Z,6.17
2022-11-19T02:10:44.088Z,7.47
2022-11-19T02:13:14.475Z,6.70
2022-11-19T02:15:43.490Z,6.33
2022-11-19T02:18:25.848Z,6.50
2022-11-19T02:21:17.079Z,7.47
2022-11-19T02:24:27.324Z,6.50
2022-11-19T02:27:32.631Z,7.10
2022-11-19T02:30:10.220Z,6.80
2022-11-19T02:32:48.759Z,9.10
2022-11-19T02:35:20.803Z,8.40
2022-11-19T02:37:50.820Z,7.43
2022-11-19T02:40:21.683Z,7.93
2022-11-19T02:42:53.709Z,7.30
2022-11-19T02:45:24.274Z,7.03
2022-11-19T02:47:53.598Z,7.87
2022-11-19T02:50:23.882Z,7.03
2022-11-19T02:52:51.551Z,7.27
2022-11-19T02:55:20.767Z,6.90
2022-11-19T02:57:50.242Z,6.87
2022-11-19T03:00:36.430Z,6.67
2022-11-19T03:03:24.427Z,6.60
2022-11-19T03:05:53.279Z,6.50
2022-11-19T03:08:21.294Z,6.27
2022-11-19T03:10:53.940Z,6.50
2022-11-19T03:13:45.746Z,6.80
2022-11-19T03:16:33.447Z,6.77
2022-11-19T03:19:05.793Z,6.37
2022-11-19T03:21:36.503Z,6.70
2022-11-19T03:24:06.326Z,6.53
2022-11-19T03:26:35.273Z,6.13
2022-11-19T03:29:03.942Z,5.90
2022-11-19T03:31:31.805Z,6.07
2022-11-19T03:34:02.816Z,6.30
2022-11-19T03:36:33.407Z,5.40
2022-11-19T03:39:03.464Z,5.80
2022-11-19T03:41:31.411Z,6.07
2022-11-19T03:44:03.251Z,5.80
2022-11-19T03:46:32.671Z,5.53
2022-11-19T03:49:02.100Z,5.47
2022-11-19T03:51:31.791Z,6.07
2022-11-19T03:53:59.982Z,5.50
2022-11-19T03:56:27.754Z,5.90
2022-11-19T03:58:55.539Z,5.97
2022-11-19T04:01:23.382Z,6.00
2022-11-19T04:04:05.476Z,5.17
2022-11-19T04:06:34.563Z,5.00
2022-11-19T04:09:02.859Z,5.40
2022-11-19T04:11:30.716Z,5.27
2022-11-19T04:13:58.618Z,5.53
2022-11-19T04:16:26.561Z,5.37
2022-11-19T04:18:54.508Z,5.47
2022-11-19T04:21:22.377Z,4.60
2022-11-19T04:23:51.486Z,5.27
2022-11-19T04:26:19.470Z,5.80
2022-11-19T04:28:47.662Z,4.93
2022-11-19T04:31:18.054Z,4.90
2022-11-19T04:33:46.092Z,5.60
2022-11-19T04:36:14.012Z,4.90
2022-11-19T04:38:41.767Z,5.27
2022-11-19T04:41:10.890Z,4.80
2022-11-19T04:43:38.812Z,5.27
2022-11-19T04:46:07.484Z,5.37
2022-11-19T04:48:35.449Z,5.20
2022-11-19T04:51:03.974Z,4.33
2022-11-19T04:53:31.875Z,4.70
2022-11-19T04:55:59.627Z,5.37
2022-11-19T04:58:29.108Z,4.40
2022-11-19T05:00:56.871Z,4.40
2022-11-19T05:03:25.127Z,5.40
2022-11-19T05:05:52.904Z,4.97
2022-11-19T05:08:20.773Z,5.43
2022-11-19T05:10:48.540Z,5.30
2022-11-19T05:13:16.737Z,4.50
2022-11-19T05:15:45.808Z,5.20
2022-11-19T05:18:14.285Z,4.97
2022-11-19T05:20:42.183Z,4.50
2022-11-19T05:23:10.130Z,5.30
2022-11-19T05:25:38.038Z,4.90
2022-11-19T05:28:06.388Z,4.50
2022-11-19T05:30:34.406Z,4.53
2022-11-19T05:33:03.743Z,5.07
2022-11-19T05:35:32.188Z,4.70
2022-11-19T05:38:00.039Z,5.30
2022-11-19T05:40:27.925Z,5.37
2022-11-19T05:42:55.670Z,4.70
2022-11-19T05:45:23.465Z,4.67
2022-11-19T05:47:55.511Z,4.60
2022-11-19T05:50:25.151Z,4.93
2022-11-19T05:52:52.956Z,4.80
2022-11-19T05:55:21.207Z,4.57
2022-11-19T05:57:49.027Z,4.50
2022-11-19T06:00:18.476Z,5.07
2022-11-19T06:02:46.496Z,5.10
2022-11-19T06:05:14.844Z,5.23
2022-11-19T06:07:43.919Z,4.40
2022-11-19T06:10:12.154Z,5.10
2022-11-19T06:12:45.167Z,5.23
2022-11-19T06:15:13.683Z,4.73
2022-11-19T06:17:41.559Z,5.00
2022-11-19T06:20:11.262Z,4.33
2022-11-19T06:22:39.867Z,4.53
2022-11-19T06:25:09.843Z,4.73
2022-11-19T06:27:37.684Z,4.63
2022-11-19T06:30:06.653Z,4.80
2022-11-19T06:32:34.632Z,4.83
2022-11-19T06:35:02.457Z,4.83
2022-11-19T06:37:30.902Z,4.90
2022-11-19T06:39:58.848Z,4.90
2022-11-19T06:42:37.676Z,5.00
2022-11-19T06:45:06.367Z,4.97
2022-11-19T06:47:34.360Z,4.70
2022-11-19T06:50:02.105Z,4.67
2022-11-19T06:52:29.906Z,5.00
2022-11-19T06:54:57.820Z,5.30
2022-11-19T06:57:27.175Z,4.27
2022-11-19T06:59:55.104Z,5.00
2022-11-19T07:02:22.995Z,4.97
2022-11-19T07:04:50.768Z,4.97
2022-11-19T07:07:19.263Z,4.70
2022-11-19T07:09:47.221Z,4.83
2022-11-19T07:12:15.092Z,4.50
2022-11-19T07:14:44.187Z,4.60
2022-11-19T07:17:12.454Z,5.27
2022-11-19T07:19:40.220Z,5.00
2022-11-19T07:22:08.018Z,4.77
2022-11-19T07:24:36.025Z,4.90
2022-11-19T07:27:04.347Z,4.90
2022-11-19T07:29:32.402Z,4.73
2022-11-19T07:32:02.226Z,5.10
2022-11-19T07:34:30.695Z,4.67
2022-11-19T07:36:58.776Z,4.90
2022-11-19T07:39:27.164Z,4.27
2022-11-19T07:42:12.319Z,4.97
2022-11-19T07:44:40.206Z,4.97
2022-11-19T07:47:09.502Z,4.90
2022-11-19T07:49:37.367Z,5.13
2022-11-19T07:52:05.590Z,4.63
2022-11-19T07:54:33.752Z,5.10
2022-11-19T07:57:01.858Z,4.60
2022-11-19T07:59:29.913Z,4.27
2022-11-19T08:01:58.049Z,4.90
2022-11-19T08:04:28.839Z,5.40
2022-11-19T08:06:56.847Z,4.60
2022-11-19T08:09:24.887Z,4.80
2022-11-19T08:11:52.879Z,4.70
2022-11-19T08:14:21.357Z,5.00
2022-11-19T08:17:06.984Z,4.60
2022-11-19T08:19:36.464Z,4.23
2022-11-19T08:22:04.234Z,4.50
2022-11-19T08:24:32.466Z,4.20
2022-11-19T08:27:00.345Z,4.53
2022-11-19T08:29:28.226Z,5.00
2022-11-19T08:31:55.968Z,4.60
2022-11-19T08:34:23.863Z,5.00
2022-11-19T08:36:53.133Z,4.50
2022-11-19T08:39:20.954Z,4.77
2022-11-19T08:42:11.576Z,5.50
2022-11-19T08:44:39.713Z,5.13
2022-11-19T08:47:07.492Z,5.13
2022-11-19T08:49:35.424Z,4.63
2022-11-19T08:52:04.817Z,4.70
2022-11-19T08:54:32.707Z,5.23
2022-11-19T08:57:00.664Z,4.73
2022-11-19T08:59:28.403Z,5.37
2022-11-19T09:01:56.669Z,5.03
2022-11-19T09:04:24.392Z,5.00
2022-11-19T09:06:52.276Z,4.73
2022-11-19T09:09:21.905Z,5.20
2022-11-19T09:11:49.723Z,6.00
2022-11-19T09:14:18.266Z,5.10
2022-11-19T09:16:46.467Z,5.30
2022-11-19T09:19:14.509Z,5.37
2022-11-19T09:21:42.486Z,5.30
2022-11-19T09:24:10.360Z,5.50
2022-11-19T09:26:39.561Z,6.00
2022-11-19T09:29:07.402Z,5.70
2022-11-19T09:31:35.396Z,5.77
2022-11-19T09:34:03.961Z,5.50
2022-11-19T09:36:31.912Z,6.57
2022-11-19T09:39:02.185Z,5.73
2022-11-19T09:41:37.031Z,7.07
2022-11-19T09:44:13.397Z,6.33
2022-11-19T09:46:45.141Z,6.53
2022-11-19T09:49:16.046Z,6.30
2022-11-19T09:51:44.677Z,7.03
2022-11-19T09:54:15.546Z,7.10
2022-11-19T09:56:45.080Z,6.60
2022-11-19T09:59:18.199Z,7.47
2022-11-19T10:01:46.132Z,7.50
2022-11-19T10:04:13.906Z,7.03
2022-11-19T10:06:46.614Z,6.90
2022-11-19T10:09:36.819Z,7.40
2022-11-19T10:12:12.191Z,7.53
2022-11-19T10:15:01.757Z,10.80
2022-11-19T10:17:34.451Z,11.90
2022-11-19T10:20:12.763Z,15.20
2022-11-19T10:22:41.154Z,11.60
2022-11-19T10:25:17.295Z,10.60
2022-11-19T10:27:47.567Z,11.97
2022-11-19T10:30:19.927Z,9.90
2022-11-19T10:32:52.516Z,7.70
2022-11-19T10:35:22.960Z,7.70
2022-11-19T10:37:54.521Z,7.00
2022-11-19T10:40:23.080Z,6.03
2022-11-19T10:42:51.521Z,6.83
2022-11-19T10:45:22.222Z,6.17
2022-11-19T10:47:52.175Z,6.53
2022-11-19T10:50:20.909Z,6.40
2022-11-19T10:52:51.084Z,5.60
2022-11-19T10:55:22.919Z,5.47
2022-11-19T10:57:51.267Z,6.90
2022-11-19T11:00:20.867Z,6.87
2022-11-19T11:02:50.885Z,6.43
2022-11-19T11:05:19.782Z,5.93
2022-11-19T11:07:51.022Z,6.57
2022-11-19T11:10:35.890Z,6.20
2022-11-19T11:13:36.587Z,5.40
2022-11-19T11:16:11.098Z,5.00
2022-11-19T11:18:40.673Z,4.53
2022-11-19T11:21:11.532Z,4.40
2022-11-19T11:23:48.847Z,4.40
2022-11-19T11:26:20.274Z,4.53
2022-11-19T11:28:55.541Z,4.57
2022-11-19T11:31:38.051Z,5.10
2022-11-19T11:34:06.382Z,4.57
2022-11-19T11:36:35.864Z,4.83
2022-11-19T11:39:04.683Z,4.87
2022-11-19T11:44:28.739Z,4.20
2022-11-19T11:46:59.482Z,4.70
2022-11-19T11:49:30.142Z,5.87
2022-11-19T11:52:08.394Z,5.20
2022-11-19T11:54:36.996Z,5.10
2022-11-19T11:57:10.426Z,5.17
2022-11-19T11:59:38.679Z,4.80
2022-11-19T12:02:08.726Z,5.50
2022-11-19T12:04:36.620Z,5.23
2022-11-19T12:07:10.853Z,4.80
2022-11-19T12:09:43.190Z,4.80
2022-11-19T12:12:15.084Z,5.00
2022-11-19T12:14:46.665Z,5.47
2022-11-19T12:17:33.554Z,5.53
2022-11-19T12:20:18.988Z,5.33
2022-11-19T12:22:52.130Z,5.20
2022-11-19T12:25:22.831Z,4.37
2022-11-19T12:28:07.339Z,5.27
2022-11-19T12:30:39.004Z,4.90
2022-11-19T12:33:36.841Z,4.40
2022-11-19T12:36:09.492Z,4.50
2022-11-19T12:38:40.721Z,4.03
2022-11-19T12:41:44.971Z,3.90
2022-11-19T12:44:17.074Z,3.80
2022-11-19T12:46:50.387Z,3.70
2022-11-19T12:50:00.504Z,3.83
2022-11-19T12:52:36.659Z,4.27
2022-11-19T12:55:07.998Z,3.60
2022-11-19T12:57:42.340Z,4.33
2022-11-19T13:00:12.948Z,3.90
2022-11-19T13:02:44.984Z,3.80
2022-11-19T13:05:15.289Z,3.60
2022-11-19T13:07:45.891Z,4.30
2022-11-19T13:10:15.249Z,3.00
2022-11-19T13:12:44.891Z,4.07
2022-11-19T13:15:18.405Z,3.77
2022-11-19T13:17:47.914Z,3.17
2022-11-19T13:20:19.238Z,3.93
2022-11-19T13:22:48.612Z,3.40
2022-11-19T13:25:18.368Z,3.50
2022-11-19T13:27:46.278Z,3.03
2022-11-19T13:30:17.907Z,3.53
2022-11-19T13:32:52.191Z,3.40
2022-11-19T13:35:21.635Z,3.50
2022-11-19T13:37:58.514Z,3.57
2022-11-19T13:40:28.204Z,3.50
2022-11-19T13:46:16.834Z,3.70
2022-11-19T13:48:46.132Z,3.77
2022-11-19T13:51:19.371Z,3.30
2022-11-19T13:53:48.632Z,3.30
2022-11-19T13:56:17.725Z,3.97
2022-11-19T13:58:46.719Z,3.17
2022-11-19T14:01:45.082Z,3.60
2022-11-19T14:04:56.013Z,3.30
2022-11-19T14:07:38.152Z,3.47
2022-11-19T14:10:13.834Z,3.30
2022-11-19T14:12:47.470Z,3.63
2022-11-19T14:16:14.543Z,3.67
2022-11-19T14:19:00.463Z,3.80
2022-11-19T14:22:06.991Z,4.03
2022-11-19T14:25:11.671Z,3.83
2022-11-19T14:27:40.770Z,3.83
2022-11-19T14:30:11.036Z,3.77
2022-11-19T14:32:46.927Z,3.77
2022-11-19T14:35:21.894Z,4.10
2022-11-19T14:37:50.011Z,4.10
2022-11-19T14:40:20.276Z,4.33
2022-11-19T14:43:44.274Z,4.17
2022-11-19T14:46:28.848Z,4.13
2022-11-19T14:49:02.003Z,3.93
2022-11-19T14:51:32.365Z,4.20
2022-11-19T14:54:03.995Z,3.83
2022-11-19T14:56:32.661Z,3.50
2022-11-19T14:59:17.492Z,3.70
2022-11-19T15:01:57.776Z,3.60
2022-11-19T15:04:30.468Z,3.80
2022-11-19T15:06:58.900Z,3.80
2022-11-19T15:09:53.532Z,3.63
2022-11-19T15:12:21.558Z,5.53
2022-11-19T15:15:05.870Z,6.57
2022-11-19T15:17:35.324Z,8.00
2022-11-19T15:20:22.895Z,8.93
2022-11-19T15:22:55.916Z,10.10
2022-11-19T15:25:31.112Z,10.40
2022-11-19T15:28:06.024Z,10.37
2022-11-19T15:30:48.580Z,11.07
2022-11-19T15:33:26.965Z,11.77
2022-11-19T15:36:27.504Z,11.97
2022-11-19T15:38:58.559Z,12.00
2022-11-19T15:41:26.950Z,10.27
2022-11-19T15:43:55.624Z,11.90
2022-11-19T15:46:30.584Z,12.57
2022-11-19T15:49:01.186Z,14.60
2022-11-19T15:51:29.696Z,17.33
2022-11-19T15:54:01.088Z,18.00
2022-11-19T15:56:29.958Z,18.73
2022-11-19T15:58:57.920Z,19.97
2022-11-19T16:01:27.316Z,22.10
2022-11-19T16:03:55.333Z,21.27
2022-11-19T16:06:24.663Z,21.63
2022-11-19T16:08:53.280Z,21.70
2022-11-19T16:11:40.003Z,22.37
2022-11-19T16:14:36.935Z,22.70
2022-11-19T16:17:31.343Z,23.30
2022-11-19T16:20:06.627Z,24.43
2022-11-19T16:22:35.863Z,26.40
2022-11-19T16:25:04.182Z,29.37
2022-11-19T16:27:32.506Z,31.00
2022-11-19T16:30:01.098Z,31.83
2022-11-19T16:32:30.263Z,33.07
2022-11-19T16:35:10.931Z,29.73
2022-11-19T16:37:38.790Z,29.80
2022-11-19T16:40:08.001Z,28.87
2022-11-19T16:42:34.921Z,27.00
2022-11-19T16:45:07.940Z,25.97
2022-11-19T16:47:38.358Z,25.30
2022-11-19T16:50:06.964Z,23.73
2022-11-19T16:52:39.256Z,24.77
2022-11-19T16:55:10.377Z,23.03
2022-11-19T16:57:38.363Z,22.73
2022-11-19T17:00:15.469Z,25.37
2022-11-19T17:02:44.726Z,24.90
2022-11-19T17:05:13.425Z,25.20
2022-11-19T17:07:41.587Z,26.37
2022-11-19T17:10:12.119Z,26.03
2022-11-19T17:12:50.001Z,24.90
2022-11-19T17:15:39.620Z,25.03
2022-11-19T17:18:16.748Z,26.07
2022-11-19T17:20:52.735Z,26.90
2022-11-19T17:23:21.259Z,25.53
2022-11-19T17:25:49.855Z,26.67
2022-11-19T17:28:20.395Z,28.20
2022-11-19T17:30:49.480Z,28.93
2022-11-19T17:33:19.164Z,29.10
2022-11-19T17:35:47.455Z,26.57
2022-11-19T17:38:16.526Z,25.40
2022-11-19T17:40:46.540Z,24.50
2022-11-19T17:43:32.157Z,24.30
2022-11-19T17:46:01.708Z,23.80
2022-11-19T17:48:30.800Z,24.63
2022-11-19T17:50:58.856Z,23.00
2022-11-19T17:53:26.929Z,21.37
2022-11-19T17:55:55.393Z,23.70
2022-11-19T17:58:23.340Z,23.30
2022-11-19T18:00:51.191Z,24.60
2022-11-19T18:03:19.597Z,25.17
2022-11-19T18:05:49.442Z,26.50
2022-11-19T18:08:17.393Z,23.40
2022-11-19T18:10:46.679Z,24.87
2022-11-19T18:13:17.371Z,25.53
2022-11-19T18:15:45.382Z,25.03
2022-11-19T18:18:13.256Z,24.43
2022-11-19T18:20:42.006Z,24.07
2022-11-19T18:23:14.084Z,22.97
2022-11-19T18:25:42.148Z,24.23
2022-11-19T18:28:10.635Z,24.57
2022-11-19T18:30:38.660Z,25.27
2022-11-19T18:33:06.861Z,24.40
2022-11-19T18:35:34.952Z,24.07
2022-11-19T18:38:02.934Z,25.63
2022-11-19T18:40:32.278Z,30.27
2022-11-19T18:43:17.625Z,32.60
2022-11-19T18:45:45.658Z,35.40
2022-11-19T18:48:13.472Z,39.17
2022-11-19T18:50:41.670Z,36.67
2022-11-19T18:53:10.296Z,37.50
2022-11-19T18:55:39.713Z,37.80
2022-11-19T18:58:08.161Z,35.90
2022-11-19T19:00:36.492Z,34.67
2022-11-19T19:03:05.491Z,32.73
2022-11-19T19:05:33.705Z,34.13
2022-11-19T19:08:01.707Z,37.27
2022-11-19T19:10:29.590Z,29.20
2022-11-19T19:12:58.896Z,30.30
2022-11-19T19:15:26.740Z,29.00
2022-11-19T19:17:54.866Z,28.73
2022-11-19T19:20:22.629Z,27.90
2022-11-19T19:22:50.555Z,27.97
2022-11-19T19:25:18.682Z,28.23
2022-11-19T19:27:46.482Z,29.57
2022-11-19T19:30:16.184Z,29.33
2022-11-19T19:32:44.450Z,29.80
2022-11-19T19:35:12.961Z,30.40
2022-11-19T19:37:42.449Z,28.60
2022-11-19T19:40:11.645Z,28.93
2022-11-19T19:42:41.438Z,29.03
2022-11-19T19:45:10.868Z,26.90
2022-11-19T19:47:40.264Z,27.33
2022-11-19T19:50:09.074Z,27.57
2022-11-19T19:52:36.892Z,25.03
2022-11-19T19:55:05.489Z,28.10
2022-11-19T19:57:33.391Z,27.70
2022-11-19T20:00:01.269Z,26.83
2022-11-19T20:02:29.318Z,25.57
2022-11-19T20:04:58.648Z,27.37
2022-11-19T20:07:26.641Z,27.57
2022-11-19T20:09:55.065Z,29.70
2022-11-19T20:12:23.058Z,30.80
2022-11-19T20:14:51.592Z,29.80
2022-11-19T20:17:19.531Z,29.90
2022-11-19T20:19:47.889Z,30.40
2022-11-19T20:22:18.075Z,32.50
2022-11-19T20:24:46.594Z,32.93
2022-11-19T20:27:14.547Z,31.60
2022-11-19T20:29:43.115Z,30.30
2022-11-19T20:32:11.587Z,30.00
2022-11-19T20:34:39.488Z,28.73
2022-11-19T20:37:07.428Z,28.77
2022-11-19T20:39:36.851Z,26.40
2022-11-19T20:42:22.991Z,25.00
2022-11-19T20:44:50.858Z,23.47
2022-11-19T20:47:19.410Z,24.73
2022-11-19T20:49:47.324Z,25.27
2022-11-19T20:52:17.260Z,24.93
2022-11-19T20:54:47.938Z,23.20
2022-11-19T20:57:18.512Z,21.20
2022-11-19T20:59:46.313Z,22.70
2022-11-19T21:02:14.423Z,24.83
2022-11-19T21:04:42.494Z,25.30
2022-11-19T21:07:10.915Z,23.40
2022-11-19T21:09:40.071Z,28.10
2022-11-19T21:12:09.604Z,25.00
2022-11-19T21:14:37.368Z,25.93
2022-11-19T21:17:05.439Z,25.87
2022-11-19T21:19:33.332Z,26.80
2022-11-19T21:22:01.240Z,27.23
2022-11-19T21:24:29.116Z,25.87
2022-11-19T21:26:57.025Z,25.90
2022-11-19T21:29:28.285Z,24.00
2022-11-19T21:31:56.195Z,24.47
2022-11-19T21:34:24.103Z,25.60
2022-11-19T21:36:52.558Z,25.10
2022-11-19T21:39:21.232Z,23.70
2022-11-19T21:41:49.495Z,23.23
2022-11-19T21:44:21.450Z,21.03
2022-11-19T21:46:51.275Z,22.73
2022-11-19T21:49:19.511Z,22.87
2022-11-19T21:51:47.527Z,22.27
2022-11-19T21:54:15.346Z,21.50
2022-11-19T21:56:43.103Z,22.73
2022-11-19T21:59:11.536Z,22.20
2022-11-19T22:01:39.293Z,23.17
2022-11-19T22:04:08.419Z,23.13
2022-11-19T22:06:36.226Z,21.30
2022-11-19T22:09:04.063Z,21.10
2022-11-19T22:11:32.326Z,19.67
2022-11-19T22:14:01.720Z,19.93
2022-11-19T22:16:30.352Z,20.07
2022-11-19T22:18:58.245Z,20.00
2022-11-19T22:21:29.024Z,19.70
2022-11-19T22:23:57.235Z,18.10
2022-11-19T22:26:25.034Z,19.80
2022-11-19T22:28:53.027Z,19.03
2022-11-19T22:31:20.769Z,20.93
2022-11-19T22:33:51.520Z,19.13
2022-11-19T22:36:20.296Z,18.03
2022-11-19T22:38:49.564Z,19.70
2022-11-19T22:41:18.642Z,19.30
2022-11-19T22:43:46.672Z,21.53
2022-11-19T22:46:14.869Z,22.83
2022-11-19T22:48:42.828Z,21.00
2022-11-19T22:51:12.622Z,20.37
2022-11-19T22:53:40.568Z,21.30
2022-11-19T22:56:11.006Z,20.50
2022-11-19T22:58:38.868Z,20.37
2022-11-19T23:01:07.127Z,20.60
2022-11-19T23:03:35.058Z,21.50
2022-11-19T23:06:02.995Z,18.90
2022-11-19T23:08:30.768Z,19.23
2022-11-19T23:10:59.296Z,18.70
2022-11-19T23:13:34.413Z,18.80
2022-11-19T23:16:04.298Z,18.67
2022-11-19T23:18:33.356Z,19.10
2022-11-19T23:21:02.227Z,18.80
2022-11-19T23:23:30.014Z,20.27
2022-11-19T23:25:58.222Z,19.03
2022-11-19T23:28:26.688Z,18.77
2022-11-19T23:30:56.053Z,19.13
2022-11-19T23:33:24.531Z,18.73
2022-11-19T23:35:52.462Z,18.43
2022-11-19T23:38:20.698Z,18.37
2022-11-19T23:40:48.530Z,16.67
2022-11-19T23:43:16.557Z,17.07
2022-11-19T23:45:44.623Z,16.47
2022-11-19T23:48:14.515Z,16.90
2022-11-19T23:50:42.573Z,17.40
2022-11-19T23:53:10.898Z,16.73
2022-11-19T23:55:38.997Z,16.87
2022-11-19T23:58:07.517Z,16.70
